Orleans, Michigan
Current Conditions -  °F | °C
As of 12:53 PM on Saturday 20 Dec 2014 (Local Time) from KY70 Reporting Station
Clear Clear  
Wind Chill: 25°   Ceiling: Unl
Heat Index: 31°   Visibility: 10mi
Dew Point: 23°   Wind: 6mph
Humidity: 72%   Direction: 180°S
Pressure: 30.25"   Gusts: NA
Location:  43.07°N, 85.13°W
Report Text: KY70 201753Z AUTO 18005KT 10SM CLR 00/M05 A3025 RMK AO2 T10051050
Loading
Personal Weather Stations






























Interactive Weather Map New forecast layout! Learn more

10-Day Weather Forecast

Advertisements
Track Severe Weather on mobile